Time;durP1;ratioP1;P1;durP2;ratioP2;P2;SDS_P1;SDS_P2;PMS_P1;PMS_P2;Temp;Humidity;BMP_temperature;BMP_pressure;BME280_temperature;BME280_humidity;BME280_pressure;Samples;Min_cycle;Max_cycle;Signal;HPM_P1;HPM_P2
2021/07/11 00:01:19;;;;;;;41.85;39.45;;;;;;;16.17;61.57;93475.25;5069495;28;20048;-51
2021/07/11 00:03:44;;;;;;;78.13;73.05;;;;;;;16.31;61.47;93489.47;5068888;28;20486;-49
2021/07/11 00:06:09;;;;;;;39.25;36.58;;;;;;;16.23;61.69;93489.63;5069200;28;20192;-51
2021/07/11 00:08:35;;;;;;;37.33;35.42;;;;;;;16.25;61.32;93478.63;5069506;28;20067;-51
2021/07/11 00:11:00;;;;;;;41.60;39.13;;;;;;;16.13;61.87;93482.56;5069163;28;20563;-52
2021/07/11 00:13:26;;;;;;;46.38;43.95;;;;;;;16.05;62.57;93473.63;5067804;28;20032;-50
2021/07/11 00:15:51;;;;;;;45.13;42.92;;;;;;;16.05;62.85;93485.47;5069563;28;20046;-57
2021/07/11 00:18:17;;;;;;;41.95;39.92;;;;;;;15.93;62.96;93471.41;5069316;28;20027;-56
2021/07/11 00:20:42;;;;;;;41.83;39.58;;;;;;;15.93;62.55;93474.19;5067941;28;20094;-55
2021/07/11 00:23:07;;;;;;;47.50;45.15;;;;;;;15.99;62.62;93478.72;5067617;28;20028;-51
2021/07/11 00:25:33;;;;;;;42.42;40.38;;;;;;;16.04;62.08;93477.72;5067710;28;20040;-55
2021/07/11 00:27:58;;;;;;;41.42;39.00;;;;;;;15.92;62.69;93483.09;5068312;28;20029;-53
2021/07/11 00:30:25;;;;;;;43.53;41.53;;;;;;;15.78;62.64;93487.63;5068552;28;20173;-50
2021/07/11 00:32:52;;;;;;;46.45;44.30;;;;;;;15.78;62.23;93485.59;5069040;28;20024;-53
2021/07/11 00:35:18;;;;;;;40.17;38.22;;;;;;;15.76;62.18;93488.22;5048906;28;20029;-53
2021/07/11 00:37:43;;;;;;;42.75;40.70;;;;;;;15.70;62.49;93484.25;5049194;28;20040;-53
2021/07/11 00:40:10;;;;;;;39.13;37.25;;;;;;;15.78;62.00;93476.50;5048786;28;20021;-54
2021/07/11 00:42:36;;;;;;;40.40;38.50;;;;;;;15.80;62.07;93485.00;5063201;28;20521;-52
2021/07/11 00:45:03;;;;;;;40.85;38.15;;;;;;;15.64;62.37;93481.72;5067455;28;20021;-54
2021/07/11 00:47:29;;;;;;;43.03;40.90;;;;;;;15.73;62.56;93481.00;5068911;28;20025;-58
2021/07/11 00:49:54;;;;;;;39.30;37.53;;;;;;;15.71;62.31;93480.13;5067695;28;20142;-57
2021/07/11 00:52:20;;;;;;;37.80;36.00;;;;;;;15.67;62.04;93477.78;5068800;28;20039;-58
2021/07/11 00:54:45;;;;;;;49.05;46.63;;;;;;;15.59;62.63;93482.00;5067543;28;20035;-57
2021/07/11 00:57:11;;;;;;;34.78;33.08;;;;;;;15.62;63.08;93478.78;5068945;28;20024;-57
2021/07/11 00:59:38;;;;;;;36.75;34.92;;;;;;;15.38;64.05;93465.03;5069678;28;20078;-56
2021/07/11 01:02:24;;;;;;;35.67;33.72;;;;;;;15.49;63.96;93470.81;5072116;28;20051;-57
2021/07/11 01:04:56;;;;;;;35.10;33.20;;;;;;;15.33;64.19;93466.81;5072630;28;20044;-52
2021/07/11 01:07:43;;;;;;;38.15;36.38;;;;;;;15.29;63.88;93468.53;5071643;28;20487;-52
2021/07/11 01:10:33;;;;;;;34.88;32.97;;;;;;;15.31;63.43;93463.13;5069410;28;20032;-52
2021/07/11 01:12:59;;;;;;;35.83;33.92;;;;;;;15.39;63.39;93458.91;5070353;28;20035;-52
2021/07/11 01:15:25;;;;;;;32.60;30.85;;;;;;;15.40;63.85;93460.38;5068585;28;20041;-55
2021/07/11 01:17:57;;;;;;;32.55;31.00;;;;;;;15.46;63.75;93465.69;5069533;28;20112;-56
2021/07/11 01:20:33;;;;;;;37.03;34.63;;;;;;;15.42;63.32;93462.59;5070326;28;20024;-57
2021/07/11 01:22:59;;;;;;;35.28;33.33;;;;;;;15.35;63.33;93458.59;5070798;28;20468;-57
2021/07/11 01:25:33;;;;;;;36.13;34.05;;;;;;;15.40;63.21;93456.88;5071528;28;20024;-56
2021/07/11 01:28:01;;;;;;;33.78;31.95;;;;;;;15.22;64.06;93470.13;5072173;28;20108;-57
2021/07/11 01:30:27;;;;;;;36.78;34.58;;;;;;;15.30;63.90;93465.16;5072108;28;20020;-58
2021/07/11 01:32:53;;;;;;;35.70;33.72;;;;;;;15.28;63.82;93465.00;5070838;28;20020;-57
2021/07/11 01:35:19;;;;;;;35.30;33.58;;;;;;;15.28;62.94;93473.34;5071963;28;20566;-57
2021/07/11 01:37:45;;;;;;;34.42;32.78;;;;;;;15.18;62.76;93469.81;5071947;28;20020;-54
2021/07/11 01:40:11;;;;;;;33.22;31.63;;;;;;;15.08;63.37;93475.31;5071505;28;20677;-53
2021/07/11 01:42:37;;;;;;;34.05;32.15;;;;;;;15.06;64.29;93477.19;5070961;28;20033;-53
2021/07/11 01:45:06;;;;;;;35.22;33.53;;;;;;;15.05;64.21;93470.91;5070089;28;20082;-57
2021/07/11 01:47:33;;;;;;;36.70;34.85;;;;;;;14.97;64.88;93467.50;5071428;28;20568;-57
2021/07/11 01:50:00;;;;;;;36.58;34.75;;;;;;;14.99;64.83;93470.44;5071512;28;20027;-57
2021/07/11 01:52:25;;;;;;;40.30;38.15;;;;;;;14.90;65.20;93462.75;5070451;28;20095;-50
2021/07/11 01:54:52;;;;;;;38.50;36.40;;;;;;;14.69;65.54;93459.72;5071365;28;20115;-49
2021/07/11 01:57:18;;;;;;;40.47;38.50;;;;;;;14.85;65.45;93463.78;5071319;28;20028;-50
2021/07/11 01:59:43;;;;;;;35.28;33.55;;;;;;;14.90;64.86;93464.84;5071245;28;20020;-52
2021/07/11 02:02:09;;;;;;;35.58;33.88;;;;;;;14.84;64.80;93462.31;5070990;28;20047;-50
2021/07/11 02:04:34;;;;;;;38.17;36.38;;;;;;;14.78;65.37;93461.09;5071256;28;20031;-50
2021/07/11 02:07:00;;;;;;;37.22;35.22;;;;;;;14.79;65.19;93460.50;5071296;28;20027;-53
2021/07/11 02:09:25;;;;;;;37.75;35.85;;;;;;;14.75;64.95;93462.97;5071401;28;20040;-53
2021/07/11 02:11:51;;;;;;;34.08;32.28;;;;;;;14.75;64.64;93462.97;5069818;28;20078;-54
2021/07/11 02:14:21;;;;;;;34.58;32.90;;;;;;;14.81;63.69;93466.22;5070144;28;20028;-53
2021/07/11 02:16:59;;;;;;;35.15;32.95;;;;;;;14.74;63.63;93471.88;5071274;28;20016;-54
2021/07/11 02:19:24;;;;;;;32.05;30.45;;;;;;;14.66;64.07;93463.63;5071123;28;20408;-54
2021/07/11 02:21:50;;;;;;;32.92;31.23;;;;;;;14.75;64.22;93473.38;5069468;28;20100;-54
2021/07/11 02:24:16;;;;;;;36.42;34.72;;;;;;;14.70;64.59;93472.31;5069412;28;20071;-55
2021/07/11 02:26:42;;;;;;;36.42;34.75;;;;;;;14.73;64.77;93473.94;5069893;28;20060;-53
2021/07/11 02:29:08;;;;;;;34.65;32.85;;;;;;;14.68;64.75;93474.94;5070831;28;20394;-53
2021/07/11 02:31:36;;;;;;;35.88;34.08;;;;;;;14.66;64.85;93476.81;5068728;28;20063;-54
2021/07/11 02:34:03;;;;;;;35.27;33.20;;;;;;;14.51;65.30;93474.94;5068609;28;20100;-54
2021/07/11 02:36:29;;;;;;;37.42;35.03;;;;;;;14.63;65.12;93472.41;5068932;28;20033;-52
2021/07/11 02:39:01;;;;;;;34.03;32.35;;;;;;;14.49;64.73;93474.06;5067961;28;20634;-53
2021/07/11 02:41:30;;;;;;;33.85;32.10;;;;;;;14.63;63.98;93475.91;5068136;28;20028;-53
2021/07/11 02:43:57;;;;;;;33.67;31.80;;;;;;;14.54;64.26;93476.59;5070183;28;20020;-53
2021/07/11 02:46:25;;;;;;;31.02;29.42;;;;;;;14.53;63.48;93480.66;5069863;28;20036;-53
2021/07/11 02:48:52;;;;;;;28.83;27.23;;;;;;;14.45;63.82;93474.47;5069884;28;20101;-53
2021/07/11 02:51:20;;;;;;;30.38;28.88;;;;;;;14.38;63.91;93472.50;5069319;28;20020;-52
2021/07/11 02:53:46;;;;;;;33.10;31.33;;;;;;;14.42;64.25;93478.41;5068385;28;20028;-52
2021/07/11 02:56:17;;;;;;;29.52;27.83;;;;;;;14.40;63.71;93489.34;5068210;28;20395;-52
2021/07/11 02:58:43;;;;;;;33.65;31.95;;;;;;;14.33;64.54;93490.16;5069856;28;20020;-53
2021/07/11 03:01:10;;;;;;;33.33;31.33;;;;;;;14.19;64.99;93488.97;5068699;28;20056;-49
2021/07/11 03:03:35;;;;;;;36.25;34.25;;;;;;;14.28;64.95;93488.34;5070362;28;20028;-51
2021/07/11 03:06:01;;;;;;;33.00;31.35;;;;;;;14.27;64.77;93492.44;5068965;28;20047;-51
2021/07/11 03:08:27;;;;;;;35.13;33.22;;;;;;;14.23;64.80;93486.53;5068831;28;20032;-48
2021/07/11 03:10:52;;;;;;;32.50;30.73;;;;;;;14.23;64.56;93486.53;5069163;28;20024;-54
2021/07/11 03:13:18;;;;;;;32.58;30.05;;;;;;;14.21;64.17;93489.16;5069006;28;20052;-53
2021/07/11 03:15:44;;;;;;;31.85;30.05;;;;;;;14.23;64.37;93495.59;5068740;28;20517;-55
2021/07/11 03:18:09;;;;;;;30.73;29.00;;;;;;;14.18;64.56;93491.03;5068337;28;20019;-54
2021/07/11 03:20:35;;;;;;;33.55;31.90;;;;;;;14.18;65.25;93491.03;5068851;28;20020;-52
2021/07/11 03:23:02;;;;;;;35.50;33.65;;;;;;;14.22;65.25;93493.41;5067812;28;20532;-54
2021/07/11 03:25:28;;;;;;;35.67;33.80;;;;;;;14.00;65.35;93459.03;5069671;28;20060;-51
2021/07/11 03:27:53;;;;;;;34.25;31.70;;;;;;;14.23;65.08;93501.16;5069597;28;20063;-55
2021/07/11 03:30:21;;;;;;;32.10;30.60;;;;;;;14.14;65.05;93499.03;5069597;28;20036;-55
2021/07/11 03:32:52;;;;;;;33.17;31.48;;;;;;;14.04;65.24;93497.47;5069568;28;20517;-51
2021/07/11 03:35:19;;;;;;;32.20;30.52;;;;;;;14.17;64.59;93494.38;5069337;28;20421;-51
2021/07/11 03:37:48;;;;;;;30.58;29.10;;;;;;;14.23;64.26;93498.38;5068307;28;20128;-53
2021/07/11 03:40:17;;;;;;;31.58;30.08;;;;;;;14.20;64.35;93493.25;5068161;28;20472;-51
2021/07/11 03:42:44;;;;;;;33.55;31.85;;;;;;;14.13;64.91;93503.13;5069405;28;20028;-50
2021/07/11 03:45:11;;;;;;;35.40;33.70;;;;;;;14.11;64.99;93505.72;5068493;28;20024;-51
2021/07/11 03:47:45;;;;;;;40.75;38.83;;;;;;;14.15;65.33;93503.28;5069333;28;20482;-50
2021/07/11 03:50:11;;;;;;;42.53;40.40;;;;;;;14.12;65.75;93492.59;5068302;28;20078;-49
2021/07/11 03:52:54;;;;;;;43.78;41.47;;;;;;;14.12;65.78;93498.16;5068407;28;20021;-56
2021/07/11 03:55:20;;;;;;;43.65;41.25;;;;;;;14.07;66.41;93496.34;5069667;28;20035;-50
2021/07/11 03:57:47;;;;;;;46.65;44.42;;;;;;;14.08;66.54;93498.53;5068047;28;20020;-53
2021/07/11 04:00:15;;;;;;;47.22;44.88;;;;;;;14.06;66.72;93498.38;5068896;28;20481;-57
2021/07/11 04:02:48;;;;;;;43.05;40.95;;;;;;;14.14;66.23;93496.25;5068088;28;20052;-59
2021/07/11 04:05:15;;;;;;;41.53;39.50;;;;;;;14.18;65.96;93502.16;5069304;28;20093;-51
2021/07/11 04:07:42;;;;;;;43.78;41.50;;;;;;;14.22;66.06;93498.97;5068398;28;20186;-54
2021/07/11 04:10:08;;;;;;;54.33;51.22;;;;;;;14.19;67.10;93500.09;5067390;28;20081;-57
2021/07/11 04:12:33;;;;;;;53.10;50.25;;;;;;;14.18;67.46;93502.16;5066385;28;20048;-57
2021/07/11 04:14:59;;;;;;;52.75;50.20;;;;;;;14.14;67.52;93503.88;5067668;28;20106;-57
2021/07/11 04:17:26;;;;;;;50.70;48.00;;;;;;;14.29;67.52;93498.88;5065318;28;20394;-57
2021/07/11 04:19:55;;;;;;;53.20;50.35;;;;;;;14.40;67.61;93498.41;5046682;28;20039;-54
2021/07/11 04:22:21;;;;;;;60.80;57.63;;;;;;;14.53;67.60;93493.84;5046180;28;20033;-58
2021/07/11 04:24:48;;;;;;;62.13;58.45;;;;;;;14.46;68.17;93492.63;5046531;28;20112;-58
2021/07/11 04:27:14;;;;;;;69.13;65.45;;;;;;;14.52;68.92;93501.44;5046897;28;20028;-57
2021/07/11 04:29:40;;;;;;;53.28;50.58;;;;;;;14.62;68.47;93502.22;5048152;28;20028;-57
2021/07/11 04:32:06;;;;;;;54.67;51.78;;;;;;;14.68;68.38;93499.94;5049373;28;20434;-57
2021/07/11 04:34:34;;;;;;;57.38;54.22;;;;;;;14.81;68.58;93507.91;5050376;28;20029;-58
2021/07/11 04:37:01;;;;;;;49.65;47.25;;;;;;;14.83;68.45;93496.97;5053157;28;20529;-57
2021/07/11 04:39:27;;;;;;;60.28;57.38;;;;;;;14.86;69.42;93503.41;5053315;28;20025;-57
2021/07/11 04:41:53;;;;;;;56.42;53.35;;;;;;;14.89;69.55;93505.03;5061352;28;20614;-58
2021/07/11 04:44:19;;;;;;;59.22;56.38;;;;;;;14.96;69.76;93504.22;5072896;28;20542;-57
2021/07/11 04:46:44;;;;;;;53.08;50.33;;;;;;;15.07;69.73;93503.72;5072833;28;20036;-57
2021/07/11 04:49:10;;;;;;;49.25;46.63;;;;;;;15.14;69.54;93511.19;5072701;28;20051;-58
2021/07/11 04:51:36;;;;;;;48.88;46.28;;;;;;;15.25;69.99;93516.22;5072415;28;20067;-57
2021/07/11 04:54:05;;;;;;;50.67;47.78;;;;;;;15.20;70.41;93515.19;5072394;28;20020;-57
2021/07/11 04:56:32;;;;;;;51.20;48.17;;;;;;;15.34;69.90;93520.38;5072329;28;20048;-58
2021/07/11 04:58:58;;;;;;;52.17;49.72;;;;;;;15.44;70.80;93518.41;5071994;28;20099;-53
2021/07/11 05:01:25;;;;;;;41.58;39.30;;;;;;;15.50;69.94;93511.25;5071950;28;20238;-56
2021/07/11 05:03:51;;;;;;;46.50;44.05;;;;;;;15.56;70.25;93508.94;5072611;28;20056;-58
2021/07/11 05:06:16;;;;;;;36.10;34.28;;;;;;;15.65;70.37;93508.25;5072173;28;20571;-56
2021/07/11 05:08:42;;;;;;;35.00;32.97;;;;;;;15.78;70.15;93507.13;5072286;28;20021;-58
2021/07/11 05:11:07;;;;;;;45.63;43.22;;;;;;;15.87;70.86;93503.63;5072146;28;20024;-58
2021/07/11 05:13:32;;;;;;;32.42;30.63;;;;;;;15.98;70.26;93505.84;5071953;28;20028;-56
2021/07/11 05:15:58;;;;;;;33.17;31.27;;;;;;;16.10;70.16;93503.22;5071253;28;20024;-57
2021/07/11 05:18:24;;;;;;;28.25;26.58;;;;;;;16.21;70.02;93511.75;5071572;28;20025;-53
2021/07/11 05:20:49;;;;;;;28.70;27.20;;;;;;;16.27;69.40;93505.88;5071042;28;20090;-56
2021/07/11 05:23:15;;;;;;;28.15;26.58;;;;;;;16.38;70.17;93505.31;5071653;28;20021;-57
2021/07/11 05:25:40;;;;;;;28.55;26.15;;;;;;;16.50;70.20;93506.94;5071570;28;20028;-57
2021/07/11 05:28:05;;;;;;;27.67;26.20;;;;;;;16.56;69.92;93501.84;5071049;28;20016;-55
2021/07/11 05:30:31;;;;;;;30.52;28.95;;;;;;;16.52;69.94;93476.44;5071208;28;20024;-56
2021/07/11 05:32:56;;;;;;;28.52;26.95;;;;;;;16.72;69.00;93495.97;5071113;28;20021;-57
2021/07/11 05:35:22;;;;;;;30.35;28.67;;;;;;;16.80;68.68;93497.28;5071009;28;20103;-56
2021/07/11 05:37:48;;;;;;;33.97;30.65;;;;;;;16.91;68.37;93493.16;5071150;28;20029;-50
2021/07/11 05:40:16;;;;;;;32.90;31.00;;;;;;;17.01;68.61;93496.66;5070931;28;20035;-56
2021/07/11 05:42:42;;;;;;;36.53;34.58;;;;;;;17.13;68.20;93503.81;5070663;28;20108;-56
2021/07/11 05:45:08;;;;;;;37.70;35.25;;;;;;;17.21;68.26;93498.81;5070126;28;20040;-56
2021/07/11 05:47:34;;;;;;;38.08;35.97;;;;;;;17.34;68.25;93494.81;5071025;28;20111;-56
2021/07/11 05:49:59;;;;;;;44.63;42.03;;;;;;;17.41;67.51;93497.44;5071056;28;20111;-55
2021/07/11 05:52:25;;;;;;;45.83;43.40;;;;;;;17.49;67.12;93494.47;5071141;28;20040;-55
2021/07/11 05:54:50;;;;;;;44.92;42.78;;;;;;;17.62;65.88;93498.84;5070969;28;20028;-55
2021/07/11 05:57:15;;;;;;;48.47;46.17;;;;;;;17.66;66.17;93493.53;5070824;28;20028;-56
2021/07/11 05:59:41;;;;;;;49.60;47.08;;;;;;;17.76;65.80;93483.78;5070854;28;20079;-56
2021/07/11 06:02:06;;;;;;;50.13;47.75;;;;;;;17.90;66.32;93486.81;5070193;28;20135;-57
2021/07/11 06:04:32;;;;;;;57.38;52.85;;;;;;;17.87;66.06;93483.16;5069685;28;20031;-57
2021/07/11 06:06:57;;;;;;;57.72;54.88;;;;;;;18.18;65.59;93495.03;5070311;28;20020;-57
2021/07/11 06:09:23;;;;;;;41.53;39.15;;;;;;;18.28;63.47;93499.84;5070371;28;20028;-55
2021/07/11 06:11:48;;;;;;;71.93;67.25;;;;;;;18.38;64.45;93506.09;5070326;28;20051;-57
2021/07/11 06:14:15;;;;;;;49.58;46.90;;;;;;;18.41;63.91;93504.91;5070401;28;20020;-56
2021/07/11 06:16:40;;;;;;;56.15;53.40;;;;;;;18.47;64.79;93502.53;5070356;28;20452;-58
2021/07/11 06:19:06;;;;;;;52.58;49.83;;;;;;;18.56;65.18;93501.72;5070276;28;20107;-57
2021/07/11 06:21:31;;;;;;;51.05;48.50;;;;;;;18.72;63.35;93500.72;5070021;28;20052;-57
2021/07/11 06:23:57;;;;;;;56.55;53.45;;;;;;;18.85;63.42;93493.81;5069906;28;20051;-58
2021/07/11 06:26:22;;;;;;;57.55;54.40;;;;;;;18.99;65.36;93494.75;5070005;28;20028;-56
2021/07/11 06:28:48;;;;;;;60.92;56.67;;;;;;;19.03;64.09;93500.59;5069980;28;20020;-58
2021/07/11 06:31:13;;;;;;;64.65;60.92;;;;;;;19.04;64.95;93496.44;5070358;28;20024;-56
2021/07/11 06:33:39;;;;;;;62.58;59.20;;;;;;;19.19;65.07;93495.28;5070285;28;20401;-57
2021/07/11 06:36:04;;;;;;;68.50;64.88;;;;;;;19.32;65.59;93487.03;5070163;28;20046;-57
2021/07/11 06:38:30;;;;;;;72.75;68.57;;;;;;;19.52;65.22;93491.13;5069808;28;20394;-58
2021/07/11 06:40:55;;;;;;;67.45;64.40;;;;;;;19.76;64.87;93494.66;5069191;28;20421;-55
2021/07/11 06:43:21;;;;;;;78.38;74.20;;;;;;;19.90;63.77;93483.59;5069697;28;20063;-57
2021/07/11 06:45:46;;;;;;;78.32;74.53;;;;;;;19.95;63.48;93483.22;5069665;28;20043;-53
2021/07/11 06:48:12;;;;;;;60.67;57.78;;;;;;;19.99;62.82;93477.13;5068765;28;20514;-56
2021/07/11 06:50:40;;;;;;;53.88;51.08;;;;;;;20.07;61.88;93477.59;5068327;28;20048;-50
2021/07/11 06:53:06;;;;;;;58.13;55.28;;;;;;;20.13;61.90;93463.94;5069109;28;20021;-57
2021/07/11 06:55:31;;;;;;;59.92;56.85;;;;;;;20.52;60.30;93476.09;5068458;28;20028;-56
2021/07/11 06:57:56;;;;;;;55.05;52.25;;;;;;;20.63;60.21;93477.38;5067448;28;20016;-57
2021/07/11 07:00:22;;;;;;;39.95;37.78;;;;;;;20.77;55.55;93481.03;5068824;28;20020;-57
2021/07/11 07:02:47;;;;;;;73.93;52.70;;;;;;;20.98;57.36;93481.53;5069035;28;20029;-56
2021/07/11 07:05:13;;;;;;;49.20;46.20;;;;;;;21.02;56.70;93478.97;5069291;28;20086;-56
2021/07/11 07:07:39;;;;;;;46.60;44.10;;;;;;;21.17;54.61;93480.50;5068852;28;20024;-55
2021/07/11 07:10:09;;;;;;;52.45;49.33;;;;;;;21.30;52.48;93481.88;5069081;28;20032;-55
2021/07/11 07:12:35;;;;;;;27.40;25.83;;;;;;;21.57;48.73;93471.44;5068942;28;20028;-55
2021/07/11 07:15:00;;;;;;;26.25;24.50;;;;;;;21.76;48.60;93487.22;5068691;28;20038;-55
2021/07/11 07:17:25;;;;;;;26.45;25.00;;;;;;;21.82;47.54;93481.91;5068292;28;20035;-57
2021/07/11 07:19:51;;;;;;;28.88;27.23;;;;;;;21.94;48.46;93473.44;5067307;28;20111;-56
2021/07/11 07:22:17;;;;;;;30.70;28.75;;;;;;;22.05;49.70;93487.38;5068809;28;20028;-58
2021/07/11 07:24:42;;;;;;;34.30;32.45;;;;;;;22.16;51.96;93483.00;5065693;28;20084;-56
2021/07/11 07:27:07;;;;;;;36.25;34.47;;;;;;;22.31;52.37;93483.09;5068335;28;20024;-56
2021/07/11 07:29:33;;;;;;;17.15;16.23;;;;;;;22.49;46.05;93486.84;5068267;28;20025;-58
2021/07/11 07:31:59;;;;;;;24.50;22.65;;;;;;;22.52;47.43;93465.88;5068261;28;20021;-49
2021/07/11 07:34:24;;;;;;;23.33;22.08;;;;;;;22.82;46.08;93482.84;5068804;28;20120;-52
2021/07/11 07:36:49;;;;;;;22.45;21.25;;;;;;;23.04;43.52;93495.22;5068708;28;20401;-48
2021/07/11 07:39:15;;;;;;;12.55;11.75;;;;;;;23.25;43.22;93486.38;5068503;28;20020;-57
2021/07/11 07:41:41;;;;;;;21.98;19.20;;;;;;;23.47;43.53;93490.28;5068323;28;20104;-52
2021/07/11 07:44:06;;;;;;;13.43;12.60;;;;;;;23.73;44.10;93494.31;5068342;28;20035;-50
2021/07/11 07:46:32;;;;;;;33.35;16.42;;;;;;;23.99;44.22;93486.31;5068330;28;20097;-54
2021/07/11 07:48:57;;;;;;;11.57;10.77;;;;;;;24.31;42.09;93489.84;5068436;28;20030;-56
2021/07/11 07:51:23;;;;;;;13.23;12.05;;;;;;;24.58;42.66;93492.47;5068387;28;20447;-53
2021/07/11 07:53:48;;;;;;;18.20;9.95;;;;;;;24.84;40.14;93497.13;5067987;28;20031;-56
2021/07/11 07:56:14;;;;;;;11.68;10.88;;;;;;;25.14;40.48;93492.03;5068395;28;20029;-56
2021/07/11 07:58:39;;;;;;;10.55;9.75;;;;;;;25.44;41.73;93492.53;5068381;28;20086;-56
2021/07/11 08:01:05;;;;;;;10.90;10.02;;;;;;;25.76;39.66;93495.91;5067754;28;20040;-57
2021/07/11 08:03:30;;;;;;;9.27;8.48;;;;;;;26.01;38.65;93501.81;5068312;28;20113;-58
2021/07/11 08:05:56;;;;;;;8.88;8.18;;;;;;;26.32;38.62;93492.38;5068012;28;20031;-58
2021/07/11 08:08:21;;;;;;;6.45;5.97;;;;;;;26.60;36.83;93484.91;5069050;28;20027;-57
2021/07/11 08:10:47;;;;;;;6.20;5.70;;;;;;;26.56;36.43;93489.69;5072140;28;20452;-57
2021/07/11 08:13:12;;;;;;;28.02;7.50;;;;;;;26.88;36.63;93480.22;5072115;28;20016;-57
2021/07/11 08:15:38;;;;;;;6.28;5.68;;;;;;;27.21;37.28;93479.19;5072065;28;20033;-55
2021/07/11 08:18:03;;;;;;;5.40;5.00;;;;;;;27.18;35.20;93476.97;5071805;28;20026;-56
2021/07/11 08:20:29;;;;;;;6.07;5.40;;;;;;;27.31;35.08;93487.31;5072472;28;20024;-51
2021/07/11 08:22:54;;;;;;;5.55;5.15;;;;;;;27.31;34.23;93484.50;5072193;28;20024;-53
2021/07/11 08:25:20;;;;;;;5.97;5.47;;;;;;;27.70;33.86;93484.31;5072376;28;20028;-53
2021/07/11 08:27:46;;;;;;;6.45;5.13;;;;;;;28.05;36.28;93481.16;5071888;28;20618;-49
2021/07/11 08:30:13;;;;;;;5.63;4.75;;;;;;;27.83;32.47;93477.63;5071811;28;20117;-57
2021/07/11 08:32:39;;;;;;;5.88;5.38;;;;;;;27.94;35.39;93476.53;5072022;28;20507;-53
2021/07/11 08:35:05;;;;;;;17.77;6.07;;;;;;;28.47;34.83;93479.56;5071959;28;20020;-57
2021/07/11 08:37:30;;;;;;;5.20;4.78;;;;;;;28.17;32.64;93449.56;5071790;28;20027;-47
2021/07/11 08:39:56;;;;;;;7.53;4.68;;;;;;;27.87;33.33;93479.88;5071775;28;20059;-56
2021/07/11 08:42:26;;;;;;;4.82;4.53;;;;;;;28.10;33.55;93468.56;5071705;28;20074;-58
2021/07/11 08:44:52;;;;;;;26.23;5.70;;;;;;;28.55;33.00;93467.69;5071738;28;20032;-58
2021/07/11 08:47:19;;;;;;;5.47;4.93;;;;;;;28.85;31.30;93468.53;5071526;28;20039;-57
2021/07/11 08:49:44;;;;;;;5.53;5.03;;;;;;;27.95;30.75;93469.50;5068914;28;20638;-58
2021/07/11 08:52:09;;;;;;;5.65;5.15;;;;;;;28.33;33.59;93459.28;5071951;28;20024;-56
2021/07/11 08:54:37;;;;;;;5.72;5.22;;;;;;;28.60;33.34;93460.03;5071768;28;20047;-57
2021/07/11 08:57:06;;;;;;;12.45;11.25;;;;;;;29.38;33.03;93450.69;5071249;28;20497;-53
2021/07/11 08:59:32;;;;;;;5.32;4.78;;;;;;;29.59;31.40;93444.09;5071623;28;20032;-57
2021/07/11 09:01:58;;;;;;;5.63;5.07;;;;;;;30.22;29.74;93451.91;5070916;28;20575;-51
2021/07/11 09:04:24;;;;;;;12.88;4.88;;;;;;;29.43;29.93;93446.56;5071094;28;20025;-56
2021/07/11 09:06:55;;;;;;;4.90;4.50;;;;;;;29.83;29.73;93441.81;5071329;28;20020;-53
2021/07/11 09:09:23;;;;;;;5.63;4.28;;;;;;;30.10;30.07;93443.13;5071408;28;20024;-53
2021/07/11 09:11:51;;;;;;;4.80;4.25;;;;;;;29.92;30.38;93443.44;5071769;28;20052;-56
2021/07/11 09:14:26;;;;;;;6.30;5.27;;;;;;;30.49;31.04;93441.81;5072569;28;20107;-57
2021/07/11 09:16:53;;;;;;;4.78;4.38;;;;;;;30.59;28.48;93445.56;5072532;28;20425;-57
2021/07/11 09:19:25;;;;;;;9.80;4.60;;;;;;;29.92;30.37;93443.44;5071906;28;20028;-56
2021/07/11 09:21:56;;;;;;;5.43;4.03;;;;;;;30.02;29.42;93440.09;5071299;28;20038;-58
2021/07/11 09:24:23;;;;;;;4.72;4.20;;;;;;;29.91;29.56;93436.28;5072565;28;20517;-57
2021/07/11 09:26:50;;;;;;;5.80;4.20;;;;;;;29.46;29.63;93435.94;5072124;28;20052;-57
2021/07/11 09:29:34;;;;;;;5.07;4.68;;;;;;;29.53;30.92;93440.38;5072067;28;20016;-55
2021/07/11 09:32:00;;;;;;;7.35;5.32;;;;;;;29.51;30.96;93437.47;5072235;28;20383;-57
2021/07/11 09:34:27;;;;;;;7.00;4.80;;;;;;;29.50;31.97;93428.22;5072238;28;20032;-58
2021/07/11 09:37:02;;;;;;;1999.90;275.83;;;;;;;29.87;31.67;93404.91;5071774;28;20082;-58
2021/07/11 09:39:28;;;;;;;4.70;4.30;;;;;;;29.68;28.86;93431.50;5072022;28;20040;-58
2021/07/11 09:41:53;;;;;;;6.35;4.60;;;;;;;29.34;28.81;93432.81;5071610;28;20032;-54
2021/07/11 09:44:19;;;;;;;5.25;4.75;;;;;;;29.28;29.69;93441.94;5071984;28;20020;-58
2021/07/11 09:46:45;;;;;;;5.65;4.70;;;;;;;29.70;31.74;93434.38;5071676;28;20037;-57
2021/07/11 09:49:18;;;;;;;5.03;4.60;;;;;;;29.70;30.12;93428.69;5071046;28;20016;-57
2021/07/11 09:51:51;;;;;;;5.32;4.28;;;;;;;29.98;28.52;93425.75;5071758;28;20017;-56
2021/07/11 09:54:16;;;;;;;63.17;10.90;;;;;;;30.30;31.73;93429.28;5071690;28;20486;-46
2021/07/11 09:56:46;;;;;;;5.07;4.57;;;;;;;30.60;27.79;93429.19;5071565;28;20032;-59
2021/07/11 09:59:14;;;;;;;6.47;4.97;;;;;;;30.64;28.21;93424.28;5071602;28;20032;-58
2021/07/11 10:01:41;;;;;;;;;;;;;;;31.14;27.64;93415.22;5071794;28;20477;-58
2021/07/11 10:04:07;;;;;;;5.05;4.53;;;;;;;30.58;27.21;93417.75;5070740;28;20321;-58
2021/07/11 10:06:34;;;;;;;12.02;4.80;;;;;;;30.77;28.72;93413.84;5070940;28;20024;-59
2021/07/11 10:09:00;;;;;;;5.20;4.30;;;;;;;30.48;26.30;93412.59;5069497;28;20036;-61
2021/07/11 10:11:26;;;;;;;5.22;4.38;;;;;;;30.77;26.79;93401.72;5071086;28;20089;-59
2021/07/11 10:13:52;;;;;;;5.28;4.63;;;;;;;31.30;28.16;93415.47;5071007;28;20022;-59
2021/07/11 10:16:18;;;;;;;7.68;4.85;;;;;;;31.88;25.53;93413.53;5071267;28;20059;-58
2021/07/11 10:18:46;;;;;;;14.50;4.72;;;;;;;32.45;25.99;93412.13;5056850;28;20025;-58
2021/07/11 10:21:12;;;;;;;4.95;4.28;;;;;;;33.01;25.32;93412.06;5049889;28;20086;-58
2021/07/11 10:23:40;;;;;;;4.95;4.47;;;;;;;32.47;25.64;93417.16;5059865;28;20046;-58
2021/07/11 10:26:08;;;;;;;4.72;4.32;;;;;;;32.41;23.92;93409.25;5070633;28;20028;-59
2021/07/11 10:28:36;;;;;;;5.10;4.60;;;;;;;32.41;25.13;93406.38;5070794;28;20572;-58
2021/07/11 10:31:03;;;;;;;20.13;5.33;;;;;;;32.91;26.78;93394.78;5070767;28;20028;-59
2021/07/11 10:33:28;;;;;;;8.50;4.63;;;;;;;32.84;24.08;93408.31;5070956;28;20048;-59
2021/07/11 10:36:04;;;;;;;6.30;4.80;;;;;;;32.31;23.83;93406.28;5070015;28;20516;-58
2021/07/11 10:38:39;;;;;;;4.88;4.35;;;;;;;32.30;25.41;93395.53;5070544;28;20111;-57
2021/07/11 10:41:11;;;;;;;5.05;4.65;;;;;;;32.11;24.01;93400.28;5070107;28;20063;-61
2021/07/11 10:43:37;;;;;;;6.88;4.50;;;;;;;32.06;25.57;93399.53;5070102;28;20028;-58
2021/07/11 10:46:03;;;;;;;7.38;5.78;;;;;;;32.03;26.84;93380.91;5068369;28;20035;-59
2021/07/11 10:48:30;;;;;;;7.40;4.90;;;;;;;31.78;25.60;93367.69;5068777;28;20111;-56
2021/07/11 10:50:56;;;;;;;4.65;3.75;;;;;;;31.60;24.64;93378.16;5070131;28;20024;-59
2021/07/11 10:53:22;;;;;;;4.93;4.43;;;;;;;31.77;26.49;93376.97;5068580;28;20029;-59
2021/07/11 10:55:47;;;;;;;8.07;4.20;;;;;;;32.63;25.85;93383.06;5069125;28;20039;-59
2021/07/11 10:58:18;;;;;;;4.65;4.25;;;;;;;33.18;24.81;93372.91;5068610;28;20438;-59
2021/07/11 11:00:46;;;;;;;5.28;4.05;;;;;;;32.66;24.38;93385.25;5070101;28;20410;-60
2021/07/11 11:03:23;;;;;;;5.73;5.23;;;;;;;32.84;25.23;93379.72;5070531;28;20094;-59
2021/07/11 11:05:49;;;;;;;4.82;4.43;;;;;;;32.77;23.35;93380.34;5069939;28;20056;-59
2021/07/11 11:08:21;;;;;;;4.75;4.30;;;;;;;32.81;24.10;93378.25;5070156;28;20086;-58
2021/07/11 11:10:54;;;;;;;10.18;4.47;;;;;;;32.35;24.84;93365.56;5070146;28;20054;-59
2021/07/11 11:13:25;;;;;;;6.90;4.10;;;;;;;32.06;24.46;93356.69;5070032;28;20394;-58
2021/07/11 11:16:12;;;;;;;7.13;4.75;;;;;;;31.73;25.05;93371.22;5069103;28;20040;-59
2021/07/11 11:18:39;;;;;;;4.60;4.20;;;;;;;32.04;24.49;93359.50;5069342;28;20032;-59
2021/07/11 11:21:16;;;;;;;5.50;4.07;;;;;;;31.57;24.41;93363.13;5069289;28;20065;-60